Cruise inventory

RRS Frederick Russell FR14B/87

Cruise summary report

Cruise Info. 
Ship name (ship code)RRS Frederick Russell (74GG)
Cruise identifierFR14B/87
Cruise period1987-06-21 — 1987-06-29
StatusCompleted
Port of departureTroon, United Kingdom
Port of returnDunstaffnage, United Kingdom
ObjectivesSurveying temperature, salinity, primary production and plankton distribution on the western Scottish continental shelf.
Chief scientistAnton Edwards (Scottish Marine Biological Association)
Cruise reportRRS Frederick Russell FR14B/87 cruise report frederick_russell14_87.pdf — access key 'C' (0.37 MB) 
Ocean/sea areas 
GeneralInner Seas off the West Coast of Scotland
SpecificKilbrannan Sound/Loch Fyne/Firth of Clyde/Clyde Sea/Malin Shelf/Sound of Mull
Track chartsRRS Frederick Russell FR14B/87 cruise track — trk3302.html RRS Frederick Russell FR14B/87 cruise track — trk3302b.html
Measurements 
Physical oceanography 
CTD stationsQuantity: number of stations = 123
Description: CTD casts
Optics (eg underwater light levels)Quantity: number of stations = 71
Description: irradiance meter
Chemical oceanography 
PhosphateQuantity: number of stations = 107
Description: disc
NitrateQuantity: number of stations = 107
AmmoniaQuantity: number of stations = 107
SilicateQuantity: number of stations = 107
Biology and fisheries 
Primary productivityQuantity: number of stations = 4
Phytoplankton pigs (eg chlorophyll, fluorescence)Quantity: number of stations = 107
PhytoplanktonQuantity: number of stations = 13
ZooplanktonQuantity: number of stations = 36
Description: survey:distribution,biomass determination,energy trnasfers,population structures
Data held at BODC 
Series/Profiles 
123  CTD/STD cast
Vertical spatial coordinates
Salinity of the water column
Temperature of the water column
Vertical spatial coordinates
Salinity of the water column
Temperature of the water column

BODC idDate/TimeLocationDoc.
3433411987-06-28 01:54 56° 10' 0" N  7° 15' 0" W  View metadata report for BODC series reference number 343341
3433531987-06-28 03:06 56° 10' 0" N  7° 0' 0" W  View metadata report for BODC series reference number 343353
3433651987-06-28 04:21 56° 10' 0" N  6° 49' 59" W  View metadata report for BODC series reference number 343365
3433771987-06-28 05:55 56° 10' 0" N  6° 30' 0" W  View metadata report for BODC series reference number 343377
3433891987-06-28 08:27 56° 8' 59" N  6° 19' 59" W  View metadata report for BODC series reference number 343389
3433901987-06-28 09:28 56° 10' 59" N  6° 10' 0" W  View metadata report for BODC series reference number 343390
3434081987-06-28 10:38 56° 13' 59" N  6° 1' 59" W  View metadata report for BODC series reference number 343408
3434211987-06-28 11:54 56° 16' 0" N  6° 4' 59" W  View metadata report for BODC series reference number 343421
3434331987-06-28 12:44 56° 13' 59" N  6° 1' 59" W  View metadata report for BODC series reference number 343433
3434451987-06-28 13:55 56° 10' 59" N  5° 58' 59" W  View metadata report for BODC series reference number 343445
3434571987-06-28 14:51 56° 7' 59" N  5° 55' 59" W  View metadata report for BODC series reference number 343457
3434691987-06-28 16:27 56° 4' 59" N  5° 52' 59" W  View metadata report for BODC series reference number 343469
3434701987-06-28 18:01 56° 16' 59" N  5° 50' 23" W  View metadata report for BODC series reference number 343470
3434821987-06-28 19:23 56° 19' 59" N  5° 40' 59" W  View metadata report for BODC series reference number 343482
3434941987-06-28 20:44 56° 28' 0" N  5° 30' 0" W  View metadata report for BODC series reference number 343494
3435011987-06-28 22:45 56° 31' 12" N  5° 46' 30" W  View metadata report for BODC series reference number 343501
3435131987-06-28 23:59 56° 35' 24" N  5° 58' 29" W  View metadata report for BODC series reference number 343513
3435251987-06-29 00:52 56° 40' 0" N  6° 7' 0" W  View metadata report for BODC series reference number 343525
3435371987-06-29 02:14 56° 40' 59" N  6° 16' 59" W  View metadata report for BODC series reference number 343537
3435491987-06-29 09:41 56° 29' 35" N  5° 37' 59" W  View metadata report for BODC series reference number 343549
3435501987-06-29 10:20 56° 30' 18" N  5° 36' 29" W  View metadata report for BODC series reference number 343550
3435621987-06-29 10:48 56° 31' 0" N  5° 34' 59" W  View metadata report for BODC series reference number 343562
3435741987-06-29 11:07 56° 31' 41" N  5° 33' 29" W  View metadata report for BODC series reference number 343574
3435861987-06-29 11:22 56° 32' 30" N  5° 32' 24" W  View metadata report for BODC series reference number 343586
3435981987-06-29 11:43 56° 33' 6" N  5° 30' 47" W  View metadata report for BODC series reference number 343598
3436051987-06-29 12:03 56° 33' 47" N  5° 29' 12" W  View metadata report for BODC series reference number 343605
3436171987-06-29 12:24 56° 34' 54" N  5° 28' 0" W  View metadata report for BODC series reference number 343617
3436291987-06-29 12:46 56° 35' 41" N  5° 26' 48" W  View metadata report for BODC series reference number 343629
3436301987-06-29 13:04 56° 36' 29" N  5° 25' 18" W  View metadata report for BODC series reference number 343630
3436421987-06-29 13:23 56° 37' 23" N  5° 24' 0" W  View metadata report for BODC series reference number 343642
3436541987-06-29 14:03 56° 38' 12" N  5° 22' 41" W  View metadata report for BODC series reference number 343654
3436661987-06-29 14:26 56° 39' 6" N  5° 21' 29" W  View metadata report for BODC series reference number 343666
3432851987-06-27 18:11 56° 10' 0" N  8° 30' 0" W  View metadata report for BODC series reference number 343285
3432971987-06-27 19:48 56° 10' 0" N  8° 15' 0" W  View metadata report for BODC series reference number 343297
3433041987-06-27 21:19 56° 10' 0" N  8° 0' 0" W  View metadata report for BODC series reference number 343304
3433161987-06-27 23:27 56° 10' 0" N  7° 45' 0" W  View metadata report for BODC series reference number 343316
3433281987-06-28 00:39 56° 10' 0" N  7° 30' 0" W  View metadata report for BODC series reference number 343328
3502821987-06-24 10:37 55° 7' 59" N  5° 13' 0" W  View metadata report for BODC series reference number 350282
3502941987-06-24 11:29 55° 6' 0" N  5° 7' 59" W  View metadata report for BODC series reference number 350294
3503011987-06-24 12:17 55° 4' 59" N  5° 4' 0" W  View metadata report for BODC series reference number 350301
3503131987-06-24 14:12 55° 4' 0" N  5° 16' 0" W  View metadata report for BODC series reference number 350313
3503251987-06-24 15:25 54° 57' 0" N  5° 13' 59" W  View metadata report for BODC series reference number 350325
3503371987-06-24 17:27 55° 1' 0" N  5° 19' 59" W  View metadata report for BODC series reference number 350337
3503491987-06-24 18:43 54° 57' 0" N  5° 30' 0" W  View metadata report for BODC series reference number 350349
3503501987-06-24 20:21 55° 4' 59" N  5° 25' 59" W  View metadata report for BODC series reference number 350350
3503621987-06-24 22:10 55° 8' 59" N  5° 31' 59" W  View metadata report for BODC series reference number 350362
3503741987-06-24 23:01 55° 13' 0" N  5° 37' 59" W  View metadata report for BODC series reference number 350374
3503861987-06-25 02:09 55° 16' 0" N  5° 28' 59" W  View metadata report for BODC series reference number 350386
3503981987-06-25 04:06 55° 13' 59" N  5° 46' 0" W  View metadata report for BODC series reference number 350398
3504051987-06-25 04:38 55° 15' 0" N  5° 46' 59" W  View metadata report for BODC series reference number 350405
3504171987-06-25 06:15 55° 13' 0" N  5° 52' 0" W  View metadata report for BODC series reference number 350417
3504291987-06-25 08:39 55° 10' 59" N  5° 55' 59" W  View metadata report for BODC series reference number 350429
3504301987-06-25 12:08 55° 13' 59" N  6° 45' 0" W  View metadata report for BODC series reference number 350430
3504421987-06-25 13:05 55° 19' 0" N  6° 40' 59" W  View metadata report for BODC series reference number 350442
3504541987-06-25 14:09 55° 22' 59" N  6° 37' 0" W  View metadata report for BODC series reference number 350454
3504661987-06-25 16:22 55° 28' 0" N  6° 32' 59" W  View metadata report for BODC series reference number 350466
3504781987-06-25 17:47 55° 32' 59" N  6° 30' 0" W  View metadata report for BODC series reference number 350478
3504911987-06-25 20:44 55° 37' 0" N  6° 25' 59" W  View metadata report for BODC series reference number 350491
3505091987-06-25 21:36 55° 42' 0" N  6° 22' 0" W  View metadata report for BODC series reference number 350509
3505101987-06-25 23:19 55° 46' 0" N  6° 37' 0" W  View metadata report for BODC series reference number 350510
3505221987-06-26 00:11 55° 46' 0" N  6° 46' 0" W  View metadata report for BODC series reference number 350522
3430271987-06-26 01:32 55° 46' 0" N  6° 55' 0" W  View metadata report for BODC series reference number 343027
3430391987-06-26 02:44 55° 46' 0" N  7° 4' 0" W  View metadata report for BODC series reference number 343039
3430401987-06-26 04:13 55° 46' 0" N  7° 16' 0" W  View metadata report for BODC series reference number 343040
3430521987-06-26 06:39 55° 46' 0" N  7° 28' 59" W  View metadata report for BODC series reference number 343052
3430641987-06-26 08:53 55° 46' 0" N  7° 40' 59" W  View metadata report for BODC series reference number 343064
3430761987-06-26 11:08 55° 46' 0" N  8° 0' 0" W  View metadata report for BODC series reference number 343076
3430881987-06-26 15:53 56° 10' 0" N  9° 0' 0" W  View metadata report for BODC series reference number 343088
3431071987-06-26 17:16 56° 10' 0" N  9° 10' 0" W  View metadata report for BODC series reference number 343107
3431191987-06-26 18:35 56° 10' 0" N  9° 19' 59" W  View metadata report for BODC series reference number 343119
3431201987-06-26 20:02 56° 10' 0" N  9° 30' 0" W  View metadata report for BODC series reference number 343120
3431321987-06-27 03:41 56° 10' 0" N  8° 45' 0" W  View metadata report for BODC series reference number 343132
3431441987-06-27 04:38 56° 10' 0" N  8° 45' 0" W  View metadata report for BODC series reference number 343144
3431561987-06-27 05:36 56° 10' 0" N  8° 45' 0" W  View metadata report for BODC series reference number 343156
3431681987-06-27 06:37 56° 10' 0" N  8° 45' 0" W  View metadata report for BODC series reference number 343168
3431811987-06-27 07:36 56° 10' 0" N  8° 45' 0" W  View metadata report for BODC series reference number 343181
3431931987-06-27 08:38 56° 10' 0" N  8° 45' 0" W  View metadata report for BODC series reference number 343193
3432001987-06-27 09:38 56° 10' 0" N  8° 45' 0" W  View metadata report for BODC series reference number 343200
3432121987-06-27 10:37 56° 10' 0" N  8° 45' 0" W  View metadata report for BODC series reference number 343212
3432241987-06-27 11:37 56° 10' 0" N  8° 45' 0" W  View metadata report for BODC series reference number 343224
3432361987-06-27 12:42 56° 10' 0" N  8° 45' 0" W  View metadata report for BODC series reference number 343236
3432481987-06-27 13:39 56° 10' 0" N  8° 45' 0" W  View metadata report for BODC series reference number 343248
3432611987-06-27 14:39 56° 10' 0" N  8° 45' 0" W  View metadata report for BODC series reference number 343261
3432731987-06-27 15:45 56° 10' 0" N  8° 45' 0" W  View metadata report for BODC series reference number 343273
3502331987-06-24 02:51 55° 19' 0" N  5° 19' 59" W  View metadata report for BODC series reference number 350233
3502451987-06-24 04:49 55° 22' 0" N  5° 27' 0" W  View metadata report for BODC series reference number 350245
3502571987-06-24 06:08 55° 15' 0" N  5° 30' 0" W  View metadata report for BODC series reference number 350257
3502691987-06-24 07:25 55° 12' 0" N  5° 27' 0" W  View metadata report for BODC series reference number 350269
3502701987-06-24 09:39 55° 8' 59" N  5° 19' 0" W  View metadata report for BODC series reference number 350270
3498461987-06-21 13:07 55° 27' 0" N  5° 28' 0" W  View metadata report for BODC series reference number 349846
3498581987-06-21 14:30 55° 31' 0" N  5° 27' 0" W  View metadata report for BODC series reference number 349858
3498711987-06-21 15:53 55° 34' 0" N  5° 25' 0" W  View metadata report for BODC series reference number 349871
3498831987-06-21 17:50 55° 37' 0" N  5° 25' 59" W  View metadata report for BODC series reference number 349883
3498951987-06-21 19:13 55° 42' 0" N  5° 20' 59" W  View metadata report for BODC series reference number 349895
3499021987-06-21 21:06 55° 45' 0" N  5° 16' 0" W  View metadata report for BODC series reference number 349902
3499141987-06-21 22:19 55° 46' 59" N  5° 13' 59" W  View metadata report for BODC series reference number 349914
3499261987-06-21 23:41 55° 49' 59" N  5° 10' 59" W  View metadata report for BODC series reference number 349926
3499381987-06-22 00:49 55° 49' 59" N  5° 16' 59" W  View metadata report for BODC series reference number 349938
3499511987-06-22 01:58 55° 53' 59" N  5° 22' 59" W  View metadata report for BODC series reference number 349951
3499631987-06-22 11:05 55° 27' 0" N  5° 28' 0" W  View metadata report for BODC series reference number 349963
3499751987-06-22 13:08 55° 42' 0" N  5° 20' 59" W  View metadata report for BODC series reference number 349975
3499871987-06-22 16:20 55° 53' 59" N  5° 22' 59" W  View metadata report for BODC series reference number 349987
3499991987-06-22 18:33 55° 58' 0" N  5° 22' 59" W  View metadata report for BODC series reference number 349999
3500001987-06-22 21:23 55° 42' 0" N  5° 9' 0" W  View metadata report for BODC series reference number 350000
3500121987-06-22 22:11 55° 42' 0" N  5° 4' 0" W  View metadata report for BODC series reference number 350012
3500241987-06-23 00:24 55° 53' 59" N  5° 4' 0" W  View metadata report for BODC series reference number 350024
3500361987-06-23 02:44 55° 49' 59" N  4° 58' 0" W  View metadata report for BODC series reference number 350036
3500481987-06-23 03:23 55° 49' 59" N  4° 55' 0" W  View metadata report for BODC series reference number 350048
3500611987-06-23 06:21 55° 38' 59" N  4° 55' 0" W  View metadata report for BODC series reference number 350061
3500731987-06-23 07:25 55° 37' 59" N  5° 0' 0" W  View metadata report for BODC series reference number 350073
3500851987-06-23 08:33 55° 36' 0" N  5° 4' 59" W  View metadata report for BODC series reference number 350085
3500971987-06-23 09:29 55° 34' 0" N  4° 58' 59" W  View metadata report for BODC series reference number 350097
3501041987-06-23 11:58 55° 28' 59" N  5° 1' 0" W  View metadata report for BODC series reference number 350104
3501161987-06-23 13:31 55° 28' 59" N  4° 55' 0" W  View metadata report for BODC series reference number 350116
3501281987-06-23 14:24 55° 28' 0" N  4° 49' 59" W  View metadata report for BODC series reference number 350128
3501411987-06-23 15:18 55° 28' 0" N  4° 43' 59" W  View metadata report for BODC series reference number 350141
3501531987-06-23 17:23 55° 22' 0" N  4° 50' 59" W  View metadata report for BODC series reference number 350153
3501651987-06-23 18:18 55° 22' 0" N  4° 58' 0" W  View metadata report for BODC series reference number 350165
3501771987-06-23 20:54 55° 22' 59" N  5° 4' 59" W  View metadata report for BODC series reference number 350177
3501891987-06-23 21:39 55° 19' 59" N  5° 7' 59" W  View metadata report for BODC series reference number 350189
3501901987-06-23 23:42 55° 13' 0" N  4° 58' 0" W  View metadata report for BODC series reference number 350190
3502081987-06-24 01:10 55° 13' 59" N  5° 2' 59" W  View metadata report for BODC series reference number 350208
3502211987-06-24 02:02 55° 16' 0" N  5° 13' 0" W  View metadata report for BODC series reference number 350221